Cleveland, Ohio
Traffic Map
Current Weather Conditions
Cleveland, Ohio
Overcast
Overcast
63°
Feels Like: 63°
Wind Chill: 63° Ceiling: 9000
Heat Index: 63° Visibility: 10mi
Dew Point: 60° Wind: 12mph
Humidity: 90% Direction: 70° (ENE)
Pressure: 30.11in Gusts: 0mph
Raw Report DataKBKL 292353Z 07010KT 10SM OVC090 17/16 A3011 RMK AO2 RAE40 SLP194 P0000 60045 T01720156 10178 20167 55001
Traffic Incident Summary
Active as of:
Severity:
Category:
InformationThere was an issue retrieving the traffic information for this location. Please try a different location or try again shortly.
Advertisements
Track Severe Weather on mobile